sensor_id;sensor_type;location;lat;lon;timestamp;P1;durP1;ratioP1;P2;durP2;ratioP2
69894;SDS011;57172;52.034;5.090;2023-06-14T00:01:58;5.20;;;2.75;;
69894;SDS011;57172;52.034;5.090;2023-06-14T00:04:25;7.22;;;2.80;;
69894;SDS011;57172;52.034;5.090;2023-06-14T00:06:52;9.13;;;2.90;;
69894;SDS011;57172;52.034;5.090;2023-06-14T00:09:20;5.68;;;2.60;;
69894;SDS011;57172;52.034;5.090;2023-06-14T00:11:46;5.85;;;2.65;;
69894;SDS011;57172;52.034;5.090;2023-06-14T00:14:13;4.63;;;2.50;;
69894;SDS011;57172;52.034;5.090;2023-06-14T00:16:40;9.95;;;3.25;;
69894;SDS011;57172;52.034;5.090;2023-06-14T00:19:09;5.70;;;2.60;;
69894;SDS011;57172;52.034;5.090;2023-06-14T00:21:37;6.47;;;3.25;;
69894;SDS011;57172;52.034;5.090;2023-06-14T00:24:04;4.55;;;2.60;;
69894;SDS011;57172;52.034;5.090;2023-06-14T00:26:32;4.25;;;2.65;;
69894;SDS011;57172;52.034;5.090;2023-06-14T00:28:59;5.25;;;2.72;;
69894;SDS011;57172;52.034;5.090;2023-06-14T00:31:26;6.60;;;2.90;;
69894;SDS011;57172;52.034;5.090;2023-06-14T00:33:53;5.03;;;2.90;;
69894;SDS011;57172;52.034;5.090;2023-06-14T00:36:20;5.78;;;2.78;;
69894;SDS011;57172;52.034;5.090;2023-06-14T00:38:47;8.38;;;3.00;;
69894;SDS011;57172;52.034;5.090;2023-06-14T00:41:14;5.88;;;2.85;;
69894;SDS011;57172;52.034;5.090;2023-06-14T00:43:41;5.10;;;2.60;;
69894;SDS011;57172;52.034;5.090;2023-06-14T00:46:08;6.00;;;2.70;;
69894;SDS011;57172;52.034;5.090;2023-06-14T00:48:35;5.57;;;2.92;;
69894;SDS011;57172;52.034;5.090;2023-06-14T00:51:05;6.38;;;2.90;;
69894;SDS011;57172;52.034;5.090;2023-06-14T00:53:32;5.43;;;2.72;;
69894;SDS011;57172;52.034;5.090;2023-06-14T00:56:02;7.17;;;2.80;;
69894;SDS011;57172;52.034;5.090;2023-06-14T00:58:29;5.32;;;2.70;;
69894;SDS011;57172;52.034;5.090;2023-06-14T01:00:57;6.20;;;2.72;;
69894;SDS011;57172;52.034;5.090;2023-06-14T01:03:24;6.13;;;2.60;;
69894;SDS011;57172;52.034;5.090;2023-06-14T01:05:53;5.10;;;2.78;;
69894;SDS011;57172;52.034;5.090;2023-06-14T01:11:09;5.78;;;2.58;;
69894;SDS011;57172;52.034;5.090;2023-06-14T01:13:45;4.90;;;2.80;;
69894;SDS011;57172;52.034;5.090;2023-06-14T01:16:13;5.43;;;2.40;;
69894;SDS011;57172;52.034;5.090;2023-06-14T01:18:41;5.80;;;2.80;;
69894;SDS011;57172;52.034;5.090;2023-06-14T01:21:23;6.57;;;2.80;;
69894;SDS011;57172;52.034;5.090;2023-06-14T01:23:51;4.43;;;2.70;;
69894;SDS011;57172;52.034;5.090;2023-06-14T01:26:22;5.25;;;2.90;;
69894;SDS011;57172;52.034;5.090;2023-06-14T01:28:50;7.90;;;2.75;;
69894;SDS011;57172;52.034;5.090;2023-06-14T01:31:21;10.73;;;2.90;;
69894;SDS011;57172;52.034;5.090;2023-06-14T01:33:49;4.33;;;2.60;;
69894;SDS011;57172;52.034;5.090;2023-06-14T01:36:20;6.00;;;2.55;;
69894;SDS011;57172;52.034;5.090;2023-06-14T01:38:49;5.82;;;3.22;;
69894;SDS011;57172;52.034;5.090;2023-06-14T01:41:18;6.10;;;2.80;;
69894;SDS011;57172;52.034;5.090;2023-06-14T01:43:47;7.32;;;2.80;;
69894;SDS011;57172;52.034;5.090;2023-06-14T01:46:16;7.60;;;2.80;;
69894;SDS011;57172;52.034;5.090;2023-06-14T01:48:43;6.13;;;2.90;;
69894;SDS011;57172;52.034;5.090;2023-06-14T01:51:10;4.30;;;2.80;;
69894;SDS011;57172;52.034;5.090;2023-06-14T01:53:37;7.03;;;2.70;;
69894;SDS011;57172;52.034;5.090;2023-06-14T01:56:04;7.72;;;2.60;;
69894;SDS011;57172;52.034;5.090;2023-06-14T01:58:32;6.67;;;2.90;;
69894;SDS011;57172;52.034;5.090;2023-06-14T02:00:59;7.63;;;2.85;;
69894;SDS011;57172;52.034;5.090;2023-06-14T02:03:27;5.13;;;2.60;;
69894;SDS011;57172;52.034;5.090;2023-06-14T02:05:54;7.30;;;3.00;;
69894;SDS011;57172;52.034;5.090;2023-06-14T02:08:22;4.50;;;2.47;;
69894;SDS011;57172;52.034;5.090;2023-06-14T02:10:49;8.67;;;2.70;;
69894;SDS011;57172;52.034;5.090;2023-06-14T02:13:17;5.93;;;3.13;;
69894;SDS011;57172;52.034;5.090;2023-06-14T02:15:44;5.05;;;2.85;;
69894;SDS011;57172;52.034;5.090;2023-06-14T02:18:11;4.82;;;2.80;;
69894;SDS011;57172;52.034;5.090;2023-06-14T02:20:39;7.90;;;2.80;;
69894;SDS011;57172;52.034;5.090;2023-06-14T02:23:06;5.63;;;2.70;;
69894;SDS011;57172;52.034;5.090;2023-06-14T02:25:34;7.45;;;2.90;;
69894;SDS011;57172;52.034;5.090;2023-06-14T02:28:01;7.72;;;3.08;;
69894;SDS011;57172;52.034;5.090;2023-06-14T02:30:30;6.65;;;3.10;;
69894;SDS011;57172;52.034;5.090;2023-06-14T02:32:57;3.97;;;2.70;;
69894;SDS011;57172;52.034;5.090;2023-06-14T02:35:25;5.47;;;2.70;;
69894;SDS011;57172;52.034;5.090;2023-06-14T02:37:54;4.97;;;2.60;;
69894;SDS011;57172;52.034;5.090;2023-06-14T02:40:22;7.82;;;2.85;;
69894;SDS011;57172;52.034;5.090;2023-06-14T02:42:49;5.47;;;2.80;;
69894;SDS011;57172;52.034;5.090;2023-06-14T02:45:16;4.50;;;2.70;;
69894;SDS011;57172;52.034;5.090;2023-06-14T02:47:43;7.27;;;2.80;;
69894;SDS011;57172;52.034;5.090;2023-06-14T02:50:12;9.50;;;2.97;;
69894;SDS011;57172;52.034;5.090;2023-06-14T02:52:39;7.30;;;2.88;;
69894;SDS011;57172;52.034;5.090;2023-06-14T02:55:08;4.93;;;2.53;;
69894;SDS011;57172;52.034;5.090;2023-06-14T02:57:36;4.97;;;2.60;;
69894;SDS011;57172;52.034;5.090;2023-06-14T03:00:06;4.50;;;2.77;;
69894;SDS011;57172;52.034;5.090;2023-06-14T03:02:41;5.40;;;2.60;;
69894;SDS011;57172;52.034;5.090;2023-06-14T03:05:10;6.50;;;2.85;;
69894;SDS011;57172;52.034;5.090;2023-06-14T03:07:37;4.65;;;2.75;;
69894;SDS011;57172;52.034;5.090;2023-06-14T03:10:08;6.00;;;2.78;;
69894;SDS011;57172;52.034;5.090;2023-06-14T03:12:37;6.47;;;2.80;;
69894;SDS011;57172;52.034;5.090;2023-06-14T03:15:04;6.50;;;2.60;;
69894;SDS011;57172;52.034;5.090;2023-06-14T03:17:36;8.13;;;3.00;;
69894;SDS011;57172;52.034;5.090;2023-06-14T03:20:06;5.85;;;2.90;;
69894;SDS011;57172;52.034;5.090;2023-06-14T03:22:34;7.40;;;2.70;;
69894;SDS011;57172;52.034;5.090;2023-06-14T03:25:01;5.30;;;2.80;;
69894;SDS011;57172;52.034;5.090;2023-06-14T03:27:33;8.02;;;2.80;;
69894;SDS011;57172;52.034;5.090;2023-06-14T03:30:01;10.57;;;2.80;;
69894;SDS011;57172;52.034;5.090;2023-06-14T03:32:29;6.68;;;2.80;;
69894;SDS011;57172;52.034;5.090;2023-06-14T03:34:59;5.93;;;2.80;;
69894;SDS011;57172;52.034;5.090;2023-06-14T03:37:26;6.57;;;2.90;;
69894;SDS011;57172;52.034;5.090;2023-06-14T03:39:53;7.60;;;3.10;;
69894;SDS011;57172;52.034;5.090;2023-06-14T03:42:22;5.32;;;2.53;;
69894;SDS011;57172;52.034;5.090;2023-06-14T03:44:50;5.85;;;2.60;;
69894;SDS011;57172;52.034;5.090;2023-06-14T03:47:19;6.22;;;2.90;;
69894;SDS011;57172;52.034;5.090;2023-06-14T03:49:46;5.53;;;2.97;;
69894;SDS011;57172;52.034;5.090;2023-06-14T03:52:13;6.10;;;2.58;;
69894;SDS011;57172;52.034;5.090;2023-06-14T03:54:42;7.03;;;2.83;;
69894;SDS011;57172;52.034;5.090;2023-06-14T03:57:14;4.70;;;2.55;;
69894;SDS011;57172;52.034;5.090;2023-06-14T03:59:42;4.53;;;2.70;;
69894;SDS011;57172;52.034;5.090;2023-06-14T04:02:09;6.20;;;2.70;;
69894;SDS011;57172;52.034;5.090;2023-06-14T04:04:36;6.68;;;2.90;;
69894;SDS011;57172;52.034;5.090;2023-06-14T04:07:04;5.40;;;2.90;;
69894;SDS011;57172;52.034;5.090;2023-06-14T04:09:31;4.55;;;2.50;;
69894;SDS011;57172;52.034;5.090;2023-06-14T04:11:58;4.90;;;2.75;;
69894;SDS011;57172;52.034;5.090;2023-06-14T04:14:25;5.40;;;2.53;;
69894;SDS011;57172;52.034;5.090;2023-06-14T04:16:52;5.38;;;2.60;;
69894;SDS011;57172;52.034;5.090;2023-06-14T04:19:20;8.98;;;2.70;;
69894;SDS011;57172;52.034;5.090;2023-06-14T04:21:47;4.85;;;2.63;;
69894;SDS011;57172;52.034;5.090;2023-06-14T04:24:15;5.72;;;2.83;;
69894;SDS011;57172;52.034;5.090;2023-06-14T04:26:46;6.13;;;2.97;;
69894;SDS011;57172;52.034;5.090;2023-06-14T04:29:16;5.32;;;2.70;;
69894;SDS011;57172;52.034;5.090;2023-06-14T04:31:49;7.22;;;2.85;;
69894;SDS011;57172;52.034;5.090;2023-06-14T04:34:19;7.85;;;2.67;;
69894;SDS011;57172;52.034;5.090;2023-06-14T04:36:52;6.68;;;2.53;;
69894;SDS011;57172;52.034;5.090;2023-06-14T04:39:24;7.50;;;2.70;;
69894;SDS011;57172;52.034;5.090;2023-06-14T04:41:52;7.00;;;2.88;;
69894;SDS011;57172;52.034;5.090;2023-06-14T04:44:23;4.40;;;2.60;;
69894;SDS011;57172;52.034;5.090;2023-06-14T04:46:57;4.35;;;2.22;;
69894;SDS011;57172;52.034;5.090;2023-06-14T04:49:25;9.10;;;2.80;;
69894;SDS011;57172;52.034;5.090;2023-06-14T04:51:53;7.80;;;2.80;;
69894;SDS011;57172;52.034;5.090;2023-06-14T04:54:28;5.45;;;2.50;;
69894;SDS011;57172;52.034;5.090;2023-06-14T04:56:58;6.18;;;2.67;;
69894;SDS011;57172;52.034;5.090;2023-06-14T04:59:26;6.78;;;3.38;;
69894;SDS011;57172;52.034;5.090;2023-06-14T05:01:53;4.68;;;2.67;;
69894;SDS011;57172;52.034;5.090;2023-06-14T05:04:23;6.43;;;2.60;;
69894;SDS011;57172;52.034;5.090;2023-06-14T05:06:52;7.05;;;2.80;;
69894;SDS011;57172;52.034;5.090;2023-06-14T05:09:21;6.38;;;2.50;;
69894;SDS011;57172;52.034;5.090;2023-06-14T05:11:48;6.35;;;2.70;;
69894;SDS011;57172;52.034;5.090;2023-06-14T05:14:16;8.30;;;3.15;;
69894;SDS011;57172;52.034;5.090;2023-06-14T05:16:45;4.83;;;2.50;;
69894;SDS011;57172;52.034;5.090;2023-06-14T05:19:12;5.18;;;2.85;;
69894;SDS011;57172;52.034;5.090;2023-06-14T05:21:39;5.82;;;2.90;;
69894;SDS011;57172;52.034;5.090;2023-06-14T05:24:09;5.35;;;2.58;;
69894;SDS011;57172;52.034;5.090;2023-06-14T05:26:36;6.90;;;2.70;;
69894;SDS011;57172;52.034;5.090;2023-06-14T05:29:03;5.83;;;2.90;;
69894;SDS011;57172;52.034;5.090;2023-06-14T05:31:30;9.20;;;3.00;;
69894;SDS011;57172;52.034;5.090;2023-06-14T05:33:58;5.93;;;2.67;;
69894;SDS011;57172;52.034;5.090;2023-06-14T05:36:26;6.38;;;3.00;;
69894;SDS011;57172;52.034;5.090;2023-06-14T05:38:54;4.40;;;2.50;;
69894;SDS011;57172;52.034;5.090;2023-06-14T05:41:26;4.77;;;2.80;;
69894;SDS011;57172;52.034;5.090;2023-06-14T05:43:54;7.80;;;2.83;;
69894;SDS011;57172;52.034;5.090;2023-06-14T05:46:22;7.32;;;2.75;;
69894;SDS011;57172;52.034;5.090;2023-06-14T05:48:52;5.15;;;2.60;;
69894;SDS011;57172;52.034;5.090;2023-06-14T05:51:19;7.05;;;2.80;;
69894;SDS011;57172;52.034;5.090;2023-06-14T05:53:47;6.43;;;3.10;;
69894;SDS011;57172;52.034;5.090;2023-06-14T05:56:15;4.82;;;2.80;;
69894;SDS011;57172;52.034;5.090;2023-06-14T05:58:42;7.55;;;2.92;;
69894;SDS011;57172;52.034;5.090;2023-06-14T06:01:08;6.63;;;2.92;;
69894;SDS011;57172;52.034;5.090;2023-06-14T06:03:35;5.85;;;3.03;;
69894;SDS011;57172;52.034;5.090;2023-06-14T06:06:02;5.47;;;2.80;;
69894;SDS011;57172;52.034;5.090;2023-06-14T06:08:30;6.70;;;3.00;;
69894;SDS011;57172;52.034;5.090;2023-06-14T06:10:57;4.55;;;2.60;;
69894;SDS011;57172;52.034;5.090;2023-06-14T06:13:24;5.13;;;2.90;;
69894;SDS011;57172;52.034;5.090;2023-06-14T06:15:51;7.35;;;2.83;;
69894;SDS011;57172;52.034;5.090;2023-06-14T06:18:18;8.57;;;2.60;;
69894;SDS011;57172;52.034;5.090;2023-06-14T06:20:45;5.32;;;2.90;;
69894;SDS011;57172;52.034;5.090;2023-06-14T06:23:13;6.82;;;3.00;;
69894;SDS011;57172;52.034;5.090;2023-06-14T06:25:40;8.43;;;3.30;;
69894;SDS011;57172;52.034;5.090;2023-06-14T06:28:07;6.07;;;3.15;;
69894;SDS011;57172;52.034;5.090;2023-06-14T06:30:34;6.17;;;3.00;;
69894;SDS011;57172;52.034;5.090;2023-06-14T06:33:03;7.95;;;3.22;;
69894;SDS011;57172;52.034;5.090;2023-06-14T06:35:30;6.45;;;2.85;;
69894;SDS011;57172;52.034;5.090;2023-06-14T06:37:59;4.70;;;2.95;;
69894;SDS011;57172;52.034;5.090;2023-06-14T06:40:27;5.50;;;2.80;;
69894;SDS011;57172;52.034;5.090;2023-06-14T06:42:54;6.87;;;2.90;;
69894;SDS011;57172;52.034;5.090;2023-06-14T06:45:24;7.78;;;3.00;;
69894;SDS011;57172;52.034;5.090;2023-06-14T06:47:51;5.13;;;3.03;;
69894;SDS011;57172;52.034;5.090;2023-06-14T06:50:18;6.25;;;3.20;;
69894;SDS011;57172;52.034;5.090;2023-06-14T06:52:52;9.35;;;3.40;;
69894;SDS011;57172;52.034;5.090;2023-06-14T06:55:20;5.73;;;2.93;;
69894;SDS011;57172;52.034;5.090;2023-06-14T06:57:47;7.00;;;3.15;;
69894;SDS011;57172;52.034;5.090;2023-06-14T07:00:14;5.50;;;3.15;;
69894;SDS011;57172;52.034;5.090;2023-06-14T07:02:42;5.78;;;3.45;;
69894;SDS011;57172;52.034;5.090;2023-06-14T07:05:09;8.90;;;3.05;;
69894;SDS011;57172;52.034;5.090;2023-06-14T07:07:36;5.57;;;2.57;;
69894;SDS011;57172;52.034;5.090;2023-06-14T07:10:03;5.32;;;2.80;;
69894;SDS011;57172;52.034;5.090;2023-06-14T07:12:31;5.82;;;2.80;;
69894;SDS011;57172;52.034;5.090;2023-06-14T07:15:00;5.18;;;3.03;;
69894;SDS011;57172;52.034;5.090;2023-06-14T07:17:29;6.13;;;3.20;;
69894;SDS011;57172;52.034;5.090;2023-06-14T07:19:56;4.93;;;2.80;;
69894;SDS011;57172;52.034;5.090;2023-06-14T07:22:23;8.48;;;3.10;;
69894;SDS011;57172;52.034;5.090;2023-06-14T07:24:50;7.82;;;3.05;;
69894;SDS011;57172;52.034;5.090;2023-06-14T07:27:17;6.45;;;2.90;;
69894;SDS011;57172;52.034;5.090;2023-06-14T07:29:44;6.05;;;3.33;;
69894;SDS011;57172;52.034;5.090;2023-06-14T07:32:11;4.17;;;2.77;;
69894;SDS011;57172;52.034;5.090;2023-06-14T07:34:37;4.78;;;2.70;;
69894;SDS011;57172;52.034;5.090;2023-06-14T07:37:04;4.93;;;2.83;;
69894;SDS011;57172;52.034;5.090;2023-06-14T07:39:31;5.70;;;3.00;;
69894;SDS011;57172;52.034;5.090;2023-06-14T07:41:58;5.70;;;2.88;;
69894;SDS011;57172;52.034;5.090;2023-06-14T07:44:27;7.73;;;3.10;;
69894;SDS011;57172;52.034;5.090;2023-06-14T07:46:56;4.97;;;3.00;;
69894;SDS011;57172;52.034;5.090;2023-06-14T07:49:26;4.22;;;2.95;;
69894;SDS011;57172;52.034;5.090;2023-06-14T07:51:53;4.45;;;3.00;;
69894;SDS011;57172;52.034;5.090;2023-06-14T07:54:20;5.35;;;2.85;;
69894;SDS011;57172;52.034;5.090;2023-06-14T07:56:52;6.83;;;3.00;;
69894;SDS011;57172;52.034;5.090;2023-06-14T07:59:19;6.75;;;2.90;;
69894;SDS011;57172;52.034;5.090;2023-06-14T08:01:46;4.82;;;2.88;;
69894;SDS011;57172;52.034;5.090;2023-06-14T08:04:14;4.18;;;2.80;;
69894;SDS011;57172;52.034;5.090;2023-06-14T08:06:41;4.85;;;2.95;;
69894;SDS011;57172;52.034;5.090;2023-06-14T08:09:12;6.53;;;2.80;;
69894;SDS011;57172;52.034;5.090;2023-06-14T08:11:39;10.73;;;3.00;;
69894;SDS011;57172;52.034;5.090;2023-06-14T08:14:06;8.27;;;2.78;;
69894;SDS011;57172;52.034;5.090;2023-06-14T08:16:34;5.70;;;2.60;;
69894;SDS011;57172;52.034;5.090;2023-06-14T08:19:01;5.35;;;2.85;;
69894;SDS011;57172;52.034;5.090;2023-06-14T08:21:28;3.93;;;2.67;;
69894;SDS011;57172;52.034;5.090;2023-06-14T08:23:57;6.40;;;2.65;;
69894;SDS011;57172;52.034;5.090;2023-06-14T08:26:24;4.15;;;2.80;;
69894;SDS011;57172;52.034;5.090;2023-06-14T08:28:55;4.88;;;2.60;;
69894;SDS011;57172;52.034;5.090;2023-06-14T08:31:22;5.88;;;2.63;;
69894;SDS011;57172;52.034;5.090;2023-06-14T08:33:50;4.83;;;2.40;;
69894;SDS011;57172;52.034;5.090;2023-06-14T08:36:17;4.15;;;2.50;;
69894;SDS011;57172;52.034;5.090;2023-06-14T08:38:44;4.00;;;2.40;;
69894;SDS011;57172;52.034;5.090;2023-06-14T08:41:11;4.00;;;2.47;;
69894;SDS011;57172;52.034;5.090;2023-06-14T08:43:42;5.15;;;2.40;;
69894;SDS011;57172;52.034;5.090;2023-06-14T08:46:09;4.57;;;2.40;;
69894;SDS011;57172;52.034;5.090;2023-06-14T08:48:38;5.50;;;2.50;;
69894;SDS011;57172;52.034;5.090;2023-06-14T08:51:05;4.25;;;2.45;;
69894;SDS011;57172;52.034;5.090;2023-06-14T08:53:34;5.20;;;2.38;;
69894;SDS011;57172;52.034;5.090;2023-06-14T08:56:08;4.15;;;2.35;;
69894;SDS011;57172;52.034;5.090;2023-06-14T08:58:43;4.43;;;2.30;;
69894;SDS011;57172;52.034;5.090;2023-06-14T09:01:11;3.90;;;2.20;;
69894;SDS011;57172;52.034;5.090;2023-06-14T09:03:43;3.50;;;2.22;;
69894;SDS011;57172;52.034;5.090;2023-06-14T09:06:11;2.97;;;2.05;;
69894;SDS011;57172;52.034;5.090;2023-06-14T09:08:41;4.68;;;2.13;;
69894;SDS011;57172;52.034;5.090;2023-06-14T09:11:13;2.90;;;1.93;;
69894;SDS011;57172;52.034;5.090;2023-06-14T09:13:40;3.15;;;2.05;;
69894;SDS011;57172;52.034;5.090;2023-06-14T09:16:08;2.90;;;2.00;;
69894;SDS011;57172;52.034;5.090;2023-06-14T09:18:35;4.28;;;1.80;;
69894;SDS011;57172;52.034;5.090;2023-06-14T09:21:06;3.05;;;1.80;;
69894;SDS011;57172;52.034;5.090;2023-06-14T09:23:38;3.60;;;1.77;;
69894;SDS011;57172;52.034;5.090;2023-06-14T09:26:06;2.30;;;1.60;;
69894;SDS011;57172;52.034;5.090;2023-06-14T09:28:41;3.50;;;1.80;;
69894;SDS011;57172;52.034;5.090;2023-06-14T09:31:13;2.38;;;1.58;;
69894;SDS011;57172;52.034;5.090;2023-06-14T09:33:44;4.05;;;1.65;;
69894;SDS011;57172;52.034;5.090;2023-06-14T09:36:15;2.30;;;1.63;;
69894;SDS011;57172;52.034;5.090;2023-06-14T09:38:58;2.55;;;1.60;;
69894;SDS011;57172;52.034;5.090;2023-06-14T09:41:30;2.80;;;1.40;;
69894;SDS011;57172;52.034;5.090;2023-06-14T09:44:01;4.45;;;1.60;;
69894;SDS011;57172;52.034;5.090;2023-06-14T09:46:35;3.05;;;1.50;;
69894;SDS011;57172;52.034;5.090;2023-06-14T09:49:03;2.93;;;1.50;;
69894;SDS011;57172;52.034;5.090;2023-06-14T09:51:32;2.55;;;1.35;;
69894;SDS011;57172;52.034;5.090;2023-06-14T09:54:00;2.17;;;1.50;;
69894;SDS011;57172;52.034;5.090;2023-06-14T09:56:28;4.95;;;1.50;;
69894;SDS011;57172;52.034;5.090;2023-06-14T09:58:57;1.83;;;1.25;;
69894;SDS011;57172;52.034;5.090;2023-06-14T10:01:33;2.43;;;1.50;;
69894;SDS011;57172;52.034;5.090;2023-06-14T10:04:02;4.88;;;1.60;;
69894;SDS011;57172;52.034;5.090;2023-06-14T10:06:37;1.98;;;1.45;;
69894;SDS011;57172;52.034;5.090;2023-06-14T10:09:07;1.98;;;1.33;;
69894;SDS011;57172;52.034;5.090;2023-06-14T10:11:35;2.42;;;1.30;;
69894;SDS011;57172;52.034;5.090;2023-06-14T10:14:05;2.77;;;1.47;;
69894;SDS011;57172;52.034;5.090;2023-06-14T10:16:47;2.45;;;1.27;;
69894;SDS011;57172;52.034;5.090;2023-06-14T10:19:27;3.10;;;1.40;;
69894;SDS011;57172;52.034;5.090;2023-06-14T10:22:06;2.92;;;1.40;;
69894;SDS011;57172;52.034;5.090;2023-06-14T10:24:43;2.83;;;1.50;;
69894;SDS011;57172;52.034;5.090;2023-06-14T10:27:14;2.93;;;1.40;;
69894;SDS011;57172;52.034;5.090;2023-06-14T10:30:01;2.35;;;1.30;;
69894;SDS011;57172;52.034;5.090;2023-06-14T10:32:28;2.20;;;1.40;;
69894;SDS011;57172;52.034;5.090;2023-06-14T10:34:56;3.20;;;1.50;;
69894;SDS011;57172;52.034;5.090;2023-06-14T10:37:26;3.17;;;1.60;;
69894;SDS011;57172;52.034;5.090;2023-06-14T10:39:53;4.40;;;1.53;;
69894;SDS011;57172;52.034;5.090;2023-06-14T10:42:20;1.85;;;1.30;;
69894;SDS011;57172;52.034;5.090;2023-06-14T10:44:49;2.03;;;1.40;;
69894;SDS011;57172;52.034;5.090;2023-06-14T10:47:25;2.13;;;1.30;;
69894;SDS011;57172;52.034;5.090;2023-06-14T10:50:09;2.03;;;1.20;;
69894;SDS011;57172;52.034;5.090;2023-06-14T10:52:40;3.47;;;1.40;;
69894;SDS011;57172;52.034;5.090;2023-06-14T10:55:15;1.77;;;1.27;;
69894;SDS011;57172;52.034;5.090;2023-06-14T10:57:49;2.63;;;1.40;;
69894;SDS011;57172;52.034;5.090;2023-06-14T11:00:20;2.15;;;1.48;;
69894;SDS011;57172;52.034;5.090;2023-06-14T11:05:57;1.87;;;1.10;;
69894;SDS011;57172;52.034;5.090;2023-06-14T11:11:01;1.83;;;1.35;;
69894;SDS011;57172;52.034;5.090;2023-06-14T11:13:32;1.75;;;1.23;;
69894;SDS011;57172;52.034;5.090;2023-06-14T11:15:59;2.78;;;1.50;;
69894;SDS011;57172;52.034;5.090;2023-06-14T11:18:28;2.40;;;1.23;;
69894;SDS011;57172;52.034;5.090;2023-06-14T11:20:55;2.40;;;1.55;;
69894;SDS011;57172;52.034;5.090;2023-06-14T11:23:22;2.33;;;1.30;;
69894;SDS011;57172;52.034;5.090;2023-06-14T11:25:52;3.67;;;1.40;;
69894;SDS011;57172;52.034;5.090;2023-06-14T11:28:19;2.00;;;1.30;;
69894;SDS011;57172;52.034;5.090;2023-06-14T11:31:00;2.17;;;1.40;;
69894;SDS011;57172;52.034;5.090;2023-06-14T11:33:28;1.98;;;1.27;;
69894;SDS011;57172;52.034;5.090;2023-06-14T11:35:55;5.25;;;1.35;;
69894;SDS011;57172;52.034;5.090;2023-06-14T11:38:22;2.65;;;1.40;;
69894;SDS011;57172;52.034;5.090;2023-06-14T11:40:49;2.05;;;1.30;;
69894;SDS011;57172;52.034;5.090;2023-06-14T11:43:16;1.97;;;1.17;;
69894;SDS011;57172;52.034;5.090;2023-06-14T11:45:43;3.45;;;1.30;;
69894;SDS011;57172;52.034;5.090;2023-06-14T11:48:40;2.28;;;1.30;;
69894;SDS011;57172;52.034;5.090;2023-06-14T11:51:08;2.67;;;1.63;;
69894;SDS011;57172;52.034;5.090;2023-06-14T11:53:35;2.15;;;1.48;;
69894;SDS011;57172;52.034;5.090;2023-06-14T11:56:02;2.97;;;1.20;;
69894;SDS011;57172;52.034;5.090;2023-06-14T11:58:30;2.90;;;1.33;;
69894;SDS011;57172;52.034;5.090;2023-06-14T12:00:57;3.55;;;1.40;;
69894;SDS011;57172;52.034;5.090;2023-06-14T12:03:25;1.75;;;1.30;;
69894;SDS011;57172;52.034;5.090;2023-06-14T12:08:35;2.57;;;1.30;;
69894;SDS011;57172;52.034;5.090;2023-06-14T12:11:10;2.63;;;1.55;;
69894;SDS011;57172;52.034;5.090;2023-06-14T12:13:41;2.95;;;1.50;;
69894;SDS011;57172;52.034;5.090;2023-06-14T12:16:10;3.13;;;1.50;;
69894;SDS011;57172;52.034;5.090;2023-06-14T12:18:39;2.72;;;1.40;;
69894;SDS011;57172;52.034;5.090;2023-06-14T12:21:08;4.60;;;1.37;;
69894;SDS011;57172;52.034;5.090;2023-06-14T12:23:43;2.47;;;1.50;;
69894;SDS011;57172;52.034;5.090;2023-06-14T12:26:12;4.13;;;1.40;;
69894;SDS011;57172;52.034;5.090;2023-06-14T12:28:41;3.58;;;1.35;;
69894;SDS011;57172;52.034;5.090;2023-06-14T12:31:12;3.45;;;1.38;;
69894;SDS011;57172;52.034;5.090;2023-06-14T12:33:41;2.77;;;1.60;;
69894;SDS011;57172;52.034;5.090;2023-06-14T12:36:08;2.95;;;1.35;;
69894;SDS011;57172;52.034;5.090;2023-06-14T12:38:37;3.83;;;1.42;;
69894;SDS011;57172;52.034;5.090;2023-06-14T12:41:04;3.72;;;1.48;;
69894;SDS011;57172;52.034;5.090;2023-06-14T12:43:31;3.00;;;1.50;;
69894;SDS011;57172;52.034;5.090;2023-06-14T12:45:58;2.43;;;1.40;;
69894;SDS011;57172;52.034;5.090;2023-06-14T12:48:25;2.13;;;1.35;;
69894;SDS011;57172;52.034;5.090;2023-06-14T12:50:53;2.00;;;1.50;;
69894;SDS011;57172;52.034;5.090;2023-06-14T12:53:20;2.90;;;1.50;;
69894;SDS011;57172;52.034;5.090;2023-06-14T12:55:47;2.05;;;1.40;;
69894;SDS011;57172;52.034;5.090;2023-06-14T12:58:14;2.90;;;1.40;;
69894;SDS011;57172;52.034;5.090;2023-06-14T13:00:43;5.45;;;1.40;;
69894;SDS011;57172;52.034;5.090;2023-06-14T13:03:10;3.30;;;1.40;;
69894;SDS011;57172;52.034;5.090;2023-06-14T13:05:38;3.08;;;1.30;;
69894;SDS011;57172;52.034;5.090;2023-06-14T13:08:07;2.05;;;1.30;;
69894;SDS011;57172;52.034;5.090;2023-06-14T13:10:35;2.40;;;1.30;;
69894;SDS011;57172;52.034;5.090;2023-06-14T13:13:02;2.38;;;1.30;;
69894;SDS011;57172;52.034;5.090;2023-06-14T13:15:29;2.55;;;1.40;;
69894;SDS011;57172;52.034;5.090;2023-06-14T13:17:56;3.25;;;1.30;;
69894;SDS011;57172;52.034;5.090;2023-06-14T13:20:23;1.67;;;1.20;;
69894;SDS011;57172;52.034;5.090;2023-06-14T13:22:50;5.33;;;1.17;;
69894;SDS011;57172;52.034;5.090;2023-06-14T13:25:17;2.83;;;1.20;;
69894;SDS011;57172;52.034;5.090;2023-06-14T13:27:44;2.13;;;1.40;;
69894;SDS011;57172;52.034;5.090;2023-06-14T13:30:11;1.98;;;1.23;;
69894;SDS011;57172;52.034;5.090;2023-06-14T13:32:39;1.83;;;1.25;;
69894;SDS011;57172;52.034;5.090;2023-06-14T13:35:06;2.57;;;1.20;;
69894;SDS011;57172;52.034;5.090;2023-06-14T13:37:33;4.07;;;1.25;;
69894;SDS011;57172;52.034;5.090;2023-06-14T13:40:00;2.28;;;1.40;;
69894;SDS011;57172;52.034;5.090;2023-06-14T13:42:27;2.63;;;1.38;;
69894;SDS011;57172;52.034;5.090;2023-06-14T13:44:55;1.83;;;1.23;;
69894;SDS011;57172;52.034;5.090;2023-06-14T13:47:22;2.53;;;1.10;;
69894;SDS011;57172;52.034;5.090;2023-06-14T13:49:49;2.28;;;1.20;;
69894;SDS011;57172;52.034;5.090;2023-06-14T13:52:16;2.15;;;1.30;;
69894;SDS011;57172;52.034;5.090;2023-06-14T13:54:43;1.83;;;1.30;;
69894;SDS011;57172;52.034;5.090;2023-06-14T13:57:12;1.98;;;1.20;;
69894;SDS011;57172;52.034;5.090;2023-06-14T13:59:39;3.40;;;1.20;;
69894;SDS011;57172;52.034;5.090;2023-06-14T14:02:07;2.47;;;1.35;;
69894;SDS011;57172;52.034;5.090;2023-06-14T14:04:34;2.60;;;1.30;;
69894;SDS011;57172;52.034;5.090;2023-06-14T14:07:02;4.20;;;1.30;;
69894;SDS011;57172;52.034;5.090;2023-06-14T14:09:30;2.78;;;1.60;;
69894;SDS011;57172;52.034;5.090;2023-06-14T14:12:01;2.13;;;1.30;;
69894;SDS011;57172;52.034;5.090;2023-06-14T14:14:29;2.00;;;1.33;;
69894;SDS011;57172;52.034;5.090;2023-06-14T14:16:58;2.15;;;1.40;;
69894;SDS011;57172;52.034;5.090;2023-06-14T14:19:25;1.67;;;1.30;;
69894;SDS011;57172;52.034;5.090;2023-06-14T14:21:52;2.28;;;1.40;;
69894;SDS011;57172;52.034;5.090;2023-06-14T14:24:20;6.80;;;1.50;;
69894;SDS011;57172;52.034;5.090;2023-06-14T14:26:47;2.25;;;1.30;;
69894;SDS011;57172;52.034;5.090;2023-06-14T14:29:16;2.30;;;1.40;;
69894;SDS011;57172;52.034;5.090;2023-06-14T14:31:43;3.60;;;1.40;;
69894;SDS011;57172;52.034;5.090;2023-06-14T14:34:10;2.47;;;1.40;;
69894;SDS011;57172;52.034;5.090;2023-06-14T14:36:37;2.70;;;1.47;;
69894;SDS011;57172;52.034;5.090;2023-06-14T14:39:08;2.45;;;1.63;;
69894;SDS011;57172;52.034;5.090;2023-06-14T14:41:35;2.17;;;1.40;;
69894;SDS011;57172;52.034;5.090;2023-06-14T14:44:07;2.97;;;1.42;;
69894;SDS011;57172;52.034;5.090;2023-06-14T14:46:34;5.13;;;1.60;;
69894;SDS011;57172;52.034;5.090;2023-06-14T14:49:01;4.03;;;1.40;;
69894;SDS011;57172;52.034;5.090;2023-06-14T14:51:29;3.00;;;1.52;;
69894;SDS011;57172;52.034;5.090;2023-06-14T14:53:55;2.35;;;1.55;;
69894;SDS011;57172;52.034;5.090;2023-06-14T14:56:22;2.40;;;1.35;;
69894;SDS011;57172;52.034;5.090;2023-06-14T14:58:50;2.30;;;1.40;;
69894;SDS011;57172;52.034;5.090;2023-06-14T15:01:17;2.20;;;1.50;;
69894;SDS011;57172;52.034;5.090;2023-06-14T15:03:44;2.00;;;1.40;;
69894;SDS011;57172;52.034;5.090;2023-06-14T15:06:14;3.38;;;1.60;;
69894;SDS011;57172;52.034;5.090;2023-06-14T15:08:41;3.22;;;1.50;;